sensor_id;sensor_type;location;lat;lon;timestamp;pressure;altitude;pressure_sealevel;temperature;humidity
21869;BME280;11099;41.564;23.296;2023-05-09T00:01:11;97753.47;;;17.46;100.00
21869;BME280;11099;41.564;23.296;2023-05-09T00:03:37;97540.56;;;16.56;100.00
21869;BME280;11099;41.564;23.296;2023-05-09T00:06:04;97745.91;;;17.96;100.00
21869;BME280;11099;41.564;23.296;2023-05-09T00:08:29;97634.69;;;17.00;100.00
21869;BME280;11099;41.564;23.296;2023-05-09T00:10:55;97544.94;;;16.33;100.00
21869;BME280;11099;41.564;23.296;2023-05-09T00:13:21;97540.16;;;16.54;100.00
21869;BME280;11099;41.564;23.296;2023-05-09T00:15:48;97744.03;;;17.68;100.00
21869;BME280;11099;41.564;23.296;2023-05-09T00:18:13;97651.88;;;17.11;100.00
21869;BME280;11099;41.564;23.296;2023-05-09T00:20:39;97661.63;;;17.32;100.00
21869;BME280;11099;41.564;23.296;2023-05-09T00:23:08;97775.63;;;17.99;100.00
21869;BME280;11099;41.564;23.296;2023-05-09T00:25:34;97698.00;;;17.57;100.00
21869;BME280;11099;41.564;23.296;2023-05-09T00:27:59;97712.97;;;17.71;100.00
21869;BME280;11099;41.564;23.296;2023-05-09T00:30:25;97739.13;;;18.17;100.00
21869;BME280;11099;41.564;23.296;2023-05-09T00:32:50;97757.59;;;18.35;100.00
21869;BME280;11099;41.564;23.296;2023-05-09T00:35:16;97742.06;;;18.12;100.00
21869;BME280;11099;41.564;23.296;2023-05-09T00:37:41;97727.84;;;17.96;100.00
21869;BME280;11099;41.564;23.296;2023-05-09T00:40:07;97750.09;;;17.33;100.00
21869;BME280;11099;41.564;23.296;2023-05-09T00:42:34;97741.66;;;17.07;100.00
21869;BME280;11099;41.564;23.296;2023-05-09T00:45:00;97742.25;;;17.00;100.00
21869;BME280;11099;41.564;23.296;2023-05-09T00:47:26;97746.75;;;16.96;100.00
21869;BME280;11099;41.564;23.296;2023-05-09T00:49:52;97734.53;;;16.99;100.00
21869;BME280;11099;41.564;23.296;2023-05-09T00:52:18;97758.53;;;16.92;100.00
21869;BME280;11099;41.564;23.296;2023-05-09T00:54:48;97773.13;;;16.66;100.00
21869;BME280;11099;41.564;23.296;2023-05-09T00:57:15;97715.41;;;16.36;100.00
21869;BME280;11099;41.564;23.296;2023-05-09T00:59:40;97727.00;;;16.52;100.00
21869;BME280;11099;41.564;23.296;2023-05-09T01:02:06;97731.97;;;16.25;100.00
21869;BME280;11099;41.564;23.296;2023-05-09T01:04:32;97768.78;;;16.62;100.00
21869;BME280;11099;41.564;23.296;2023-05-09T01:15:10;97745.50;;;16.41;100.00
21869;BME280;11099;41.564;23.296;2023-05-09T01:18:00;97753.34;;;16.46;100.00
21869;BME280;11099;41.564;23.296;2023-05-09T01:20:31;97742.59;;;16.71;100.00
21869;BME280;11099;41.564;23.296;2023-05-09T01:23:33;97740.06;;;16.90;100.00
21869;BME280;11099;41.564;23.296;2023-05-09T01:31:21;97695.53;;;16.77;100.00
21869;BME280;11099;41.564;23.296;2023-05-09T01:33:53;97706.47;;;17.12;100.00
21869;BME280;11099;41.564;23.296;2023-05-09T01:36:21;97679.50;;;17.24;100.00
21869;BME280;11099;41.564;23.296;2023-05-09T01:38:49;97694.00;;;16.92;100.00
21869;BME280;11099;41.564;23.296;2023-05-09T01:41:16;97742.25;;;17.00;100.00
21869;BME280;11099;41.564;23.296;2023-05-09T01:43:45;97749.59;;;16.88;100.00
21869;BME280;11099;41.564;23.296;2023-05-09T01:46:13;97763.53;;;17.05;100.00
21869;BME280;11099;41.564;23.296;2023-05-09T01:48:41;97757.47;;;17.08;100.00
21869;BME280;11099;41.564;23.296;2023-05-09T01:51:10;97706.34;;;16.93;100.00
21869;BME280;11099;41.564;23.296;2023-05-09T01:53:37;97634.50;;;16.25;100.00
21869;BME280;11099;41.564;23.296;2023-05-09T01:56:06;97608.34;;;16.10;100.00
21869;BME280;11099;41.564;23.296;2023-05-09T01:58:34;97607.31;;;16.26;100.00
21869;BME280;11099;41.564;23.296;2023-05-09T02:01:01;97752.00;;;17.33;100.00
21869;BME280;11099;41.564;23.296;2023-05-09T02:03:27;97669.25;;;16.46;100.00
21869;BME280;11099;41.564;23.296;2023-05-09T02:05:54;97698.91;;;16.62;100.00
21869;BME280;11099;41.564;23.296;2023-05-09T02:08:21;97774.72;;;17.07;100.00
21869;BME280;11099;41.564;23.296;2023-05-09T02:10:48;97742.84;;;17.22;100.00
21869;BME280;11099;41.564;23.296;2023-05-09T02:13:14;97774.72;;;17.07;100.00
21869;BME280;11099;41.564;23.296;2023-05-09T02:15:40;97611.47;;;16.12;100.00
21869;BME280;11099;41.564;23.296;2023-05-09T02:18:06;97627.63;;;16.40;100.00
21869;BME280;11099;41.564;23.296;2023-05-09T02:20:31;97538.63;;;15.73;100.00
21869;BME280;11099;41.564;23.296;2023-05-09T02:23:00;97597.22;;;15.83;100.00
21869;BME280;11099;41.564;23.296;2023-05-09T02:25:26;97691.66;;;16.50;100.00
21869;BME280;11099;41.564;23.296;2023-05-09T02:27:52;97674.00;;;16.77;100.00
21869;BME280;11099;41.564;23.296;2023-05-09T02:30:22;97627.50;;;16.48;100.00
21869;BME280;11099;41.564;23.296;2023-05-09T02:32:52;97691.59;;;16.74;100.00
21869;BME280;11099;41.564;23.296;2023-05-09T02:35:20;97551.94;;;16.10;100.00
21869;BME280;11099;41.564;23.296;2023-05-09T02:37:47;97662.19;;;16.94;100.00
21869;BME280;11099;41.564;23.296;2023-05-09T02:40:13;97771.31;;;17.67;100.00
21869;BME280;11099;41.564;23.296;2023-05-09T02:42:39;97779.41;;;17.67;100.00
21869;BME280;11099;41.564;23.296;2023-05-09T02:45:05;97744.69;;;17.33;100.00
21869;BME280;11099;41.564;23.296;2023-05-09T02:47:31;97551.69;;;16.27;100.00
21869;BME280;11099;41.564;23.296;2023-05-09T02:49:57;97501.09;;;16.01;100.00
21869;BME280;11099;41.564;23.296;2023-05-09T02:52:23;97615.69;;;16.25;100.00
21869;BME280;11099;41.564;23.296;2023-05-09T02:54:49;97635.38;;;16.29;100.00
21869;BME280;11099;41.564;23.296;2023-05-09T02:57:14;97697.50;;;16.80;100.00
21869;BME280;11099;41.564;23.296;2023-05-09T02:59:41;97614.06;;;16.48;100.00
21869;BME280;11099;41.564;23.296;2023-05-09T03:02:07;97664.66;;;16.86;100.00
21869;BME280;11099;41.564;23.296;2023-05-09T03:04:32;97730.22;;;17.38;100.00
21869;BME280;11099;41.564;23.296;2023-05-09T03:06:58;97706.47;;;17.12;100.00
21869;BME280;11099;41.564;23.296;2023-05-09T03:09:23;97758.28;;;17.69;100.00
21869;BME280;11099;41.564;23.296;2023-05-09T03:11:49;97692.50;;;17.22;100.00
21869;BME280;11099;41.564;23.296;2023-05-09T03:14:14;97680.59;;;16.79;100.00
21869;BME280;11099;41.564;23.296;2023-05-09T03:16:40;97670.78;;;16.99;100.00
21869;BME280;11099;41.564;23.296;2023-05-09T03:19:05;97753.31;;;17.11;100.00
21869;BME280;11099;41.564;23.296;2023-05-09T03:21:31;97745.88;;;17.48;100.00
21869;BME280;11099;41.564;23.296;2023-05-09T03:23:57;97751.84;;;17.13;100.00
21869;BME280;11099;41.564;23.296;2023-05-09T03:26:22;97717.56;;;17.10;100.00
21869;BME280;11099;41.564;23.296;2023-05-09T03:28:48;97765.88;;;17.35;100.00
21869;BME280;11099;41.564;23.296;2023-05-09T03:31:14;97706.66;;;16.91;100.00
21869;BME280;11099;41.564;23.296;2023-05-09T03:33:40;97688.34;;;17.09;100.00
21869;BME280;11099;41.564;23.296;2023-05-09T03:36:06;97567.69;;;15.71;100.00
21869;BME280;11099;41.564;23.296;2023-05-09T03:38:31;97635.19;;;16.22;100.00
21869;BME280;11099;41.564;23.296;2023-05-09T03:40:57;97702.78;;;16.64;100.00
21869;BME280;11099;41.564;23.296;2023-05-09T03:43:22;97761.25;;;16.79;100.00
21869;BME280;11099;41.564;23.296;2023-05-09T03:45:48;97721.41;;;16.97;100.00
21869;BME280;11099;41.564;23.296;2023-05-09T03:48:13;97682.50;;;16.79;100.00
21869;BME280;11099;41.564;23.296;2023-05-09T03:50:39;97694.75;;;15.99;100.00
21869;BME280;11099;41.564;23.296;2023-05-09T03:53:05;97801.28;;;16.44;100.00
21869;BME280;11099;41.564;23.296;2023-05-09T03:55:30;97803.59;;;16.82;100.00
21869;BME280;11099;41.564;23.296;2023-05-09T03:57:56;97705.13;;;16.01;100.00
21869;BME280;11099;41.564;23.296;2023-05-09T04:00:22;97721.91;;;16.34;100.00
21869;BME280;11099;41.564;23.296;2023-05-09T04:02:48;97781.09;;;16.87;100.00
21869;BME280;11099;41.564;23.296;2023-05-09T04:05:14;97786.22;;;16.68;100.00
21869;BME280;11099;41.564;23.296;2023-05-09T04:07:40;97758.41;;;17.00;100.00
21869;BME280;11099;41.564;23.296;2023-05-09T04:10:06;97796.34;;;17.39;100.00
21869;BME280;11099;41.564;23.296;2023-05-09T04:12:32;97790.63;;;17.41;100.00
21869;BME280;11099;41.564;23.296;2023-05-09T04:14:58;97783.19;;;17.50;100.00
21869;BME280;11099;41.564;23.296;2023-05-09T04:17:23;97784.91;;;17.42;100.00
21869;BME280;11099;41.564;23.296;2023-05-09T04:19:49;97811.66;;;17.51;100.00
21869;BME280;11099;41.564;23.296;2023-05-09T04:22:14;97650.94;;;16.76;100.00
21869;BME280;11099;41.564;23.296;2023-05-09T04:24:40;97798.66;;;17.69;100.00
21869;BME280;11099;41.564;23.296;2023-05-09T04:27:06;97788.53;;;17.06;100.00
21869;BME280;11099;41.564;23.296;2023-05-09T04:29:32;97809.09;;;17.14;100.00
21869;BME280;11099;41.564;23.296;2023-05-09T04:31:59;97750.81;;;16.90;100.00
21869;BME280;11099;41.564;23.296;2023-05-09T04:34:26;97764.00;;;16.95;100.00
21869;BME280;11099;41.564;23.296;2023-05-09T04:36:52;97814.75;;;17.37;100.00
21869;BME280;11099;41.564;23.296;2023-05-09T04:39:17;97764.84;;;17.39;100.00
21869;BME280;11099;41.564;23.296;2023-05-09T04:41:44;97768.31;;;17.40;100.00
21869;BME280;11099;41.564;23.296;2023-05-09T04:44:12;97777.13;;;17.53;100.00
21869;BME280;11099;41.564;23.296;2023-05-09T04:46:38;97767.00;;;17.34;100.00
21869;BME280;11099;41.564;23.296;2023-05-09T04:49:04;97819.13;;;17.42;100.00
21869;BME280;11099;41.564;23.296;2023-05-09T04:51:29;97738.53;;;16.77;100.00
21869;BME280;11099;41.564;23.296;2023-05-09T04:53:55;97758.09;;;17.18;100.00
21869;BME280;11099;41.564;23.296;2023-05-09T04:56:20;97711.19;;;16.75;100.00
21869;BME280;11099;41.564;23.296;2023-05-09T04:58:46;97740.28;;;17.13;100.00
21869;BME280;11099;41.564;23.296;2023-05-09T05:01:11;97786.66;;;17.50;100.00
21869;BME280;11099;41.564;23.296;2023-05-09T05:03:37;97799.44;;;17.53;100.00
21869;BME280;11099;41.564;23.296;2023-05-09T05:06:02;97713.88;;;17.03;100.00
21869;BME280;11099;41.564;23.296;2023-05-09T05:08:28;97736.78;;;17.25;100.00
21869;BME280;11099;41.564;23.296;2023-05-09T05:10:53;97701.13;;;17.00;100.00
21869;BME280;11099;41.564;23.296;2023-05-09T05:13:19;97679.97;;;16.98;100.00
21869;BME280;11099;41.564;23.296;2023-05-09T05:15:45;97680.31;;;16.97;100.00
21869;BME280;11099;41.564;23.296;2023-05-09T05:18:11;97784.47;;;17.84;100.00
21869;BME280;11099;41.564;23.296;2023-05-09T05:20:39;97783.28;;;17.53;100.00
21869;BME280;11099;41.564;23.296;2023-05-09T05:23:05;97797.78;;;17.49;100.00
21869;BME280;11099;41.564;23.296;2023-05-09T05:25:31;97735.56;;;16.94;100.00
21869;BME280;11099;41.564;23.296;2023-05-09T05:27:56;97803.25;;;17.24;100.00
21869;BME280;11099;41.564;23.296;2023-05-09T05:30:22;97815.50;;;17.50;100.00
21869;BME280;11099;41.564;23.296;2023-05-09T05:32:47;97783.16;;;17.34;100.00
21869;BME280;11099;41.564;23.296;2023-05-09T05:35:13;97830.16;;;17.24;100.00
21869;BME280;11099;41.564;23.296;2023-05-09T05:37:39;97828.53;;;17.48;100.00
21869;BME280;11099;41.564;23.296;2023-05-09T05:40:05;97831.16;;;17.60;100.00
21869;BME280;11099;41.564;23.296;2023-05-09T05:42:32;97755.13;;;17.07;100.00
21869;BME280;11099;41.564;23.296;2023-05-09T05:44:57;97810.34;;;17.45;100.00
21869;BME280;11099;41.564;23.296;2023-05-09T05:47:35;97838.44;;;17.59;100.00
21869;BME280;11099;41.564;23.296;2023-05-09T05:50:04;97807.38;;;17.34;100.00
21869;BME280;11099;41.564;23.296;2023-05-09T05:52:39;97846.13;;;17.73;100.00
21869;BME280;11099;41.564;23.296;2023-05-09T05:55:06;97827.06;;;17.66;100.00
21869;BME280;11099;41.564;23.296;2023-05-09T05:57:32;97851.97;;;17.35;100.00
21869;BME280;11099;41.564;23.296;2023-05-09T05:59:58;97844.56;;;17.04;100.00
21869;BME280;11099;41.564;23.296;2023-05-09T06:02:24;97745.28;;;16.34;100.00
21869;BME280;11099;41.564;23.296;2023-05-09T06:04:49;97788.69;;;16.85;100.00
21869;BME280;11099;41.564;23.296;2023-05-09T06:07:15;97724.28;;;15.99;100.00
21869;BME280;11099;41.564;23.296;2023-05-09T06:09:40;97799.47;;;16.48;100.00
21869;BME280;11099;41.564;23.296;2023-05-09T06:12:06;97767.66;;;16.50;100.00
21869;BME280;11099;41.564;23.296;2023-05-09T06:14:31;97757.38;;;15.91;100.00
21869;BME280;11099;41.564;23.296;2023-05-09T06:16:57;97742.50;;;16.06;100.00
21869;BME280;11099;41.564;23.296;2023-05-09T06:19:23;97802.69;;;16.91;100.00
21869;BME280;11099;41.564;23.296;2023-05-09T06:21:49;97797.72;;;17.05;100.00
21869;BME280;11099;41.564;23.296;2023-05-09T06:24:14;97795.81;;;17.05;100.00
21869;BME280;11099;41.564;23.296;2023-05-09T06:26:40;97776.50;;;17.16;100.00
21869;BME280;11099;41.564;23.296;2023-05-09T06:29:05;97800.13;;;17.50;100.00
21869;BME280;11099;41.564;23.296;2023-05-09T06:31:32;97844.38;;;17.65;100.00
21869;BME280;11099;41.564;23.296;2023-05-09T06:33:59;97739.81;;;16.95;100.00
21869;BME280;11099;41.564;23.296;2023-05-09T06:36:25;97723.25;;;16.81;100.00
21869;BME280;11099;41.564;23.296;2023-05-09T06:38:51;97801.63;;;17.35;100.00
21869;BME280;11099;41.564;23.296;2023-05-09T06:41:16;97805.09;;;17.08;100.00
21869;BME280;11099;41.564;23.296;2023-05-09T06:43:42;97836.44;;;16.76;100.00
21869;BME280;11099;41.564;23.296;2023-05-09T06:46:07;97821.75;;;16.61;100.00
21869;BME280;11099;41.564;23.296;2023-05-09T06:48:32;97859.84;;;16.88;100.00
21869;BME280;11099;41.564;23.296;2023-05-09T06:50:58;97776.41;;;16.47;100.00
21869;BME280;11099;41.564;23.296;2023-05-09T06:53:23;97732.66;;;16.22;100.00
21869;BME280;11099;41.564;23.296;2023-05-09T06:55:49;97830.19;;;17.12;100.00
21869;BME280;11099;41.564;23.296;2023-05-09T06:58:14;97782.84;;;16.95;100.00
21869;BME280;11099;41.564;23.296;2023-05-09T07:00:40;97711.94;;;16.35;100.00
21869;BME280;11099;41.564;23.296;2023-05-09T07:03:06;97832.00;;;17.08;100.00
21869;BME280;11099;41.564;23.296;2023-05-09T07:05:32;97846.00;;;17.13;100.00
21869;BME280;11099;41.564;23.296;2023-05-09T07:07:57;97817.13;;;16.86;100.00
21869;BME280;11099;41.564;23.296;2023-05-09T07:10:23;97869.09;;;17.15;100.00
21869;BME280;11099;41.564;23.296;2023-05-09T07:12:48;97850.75;;;16.92;100.00
21869;BME280;11099;41.564;23.296;2023-05-09T07:15:15;97859.75;;;16.72;100.00
21869;BME280;11099;41.564;23.296;2023-05-09T07:17:41;97862.13;;;17.26;100.00
21869;BME280;11099;41.564;23.296;2023-05-09T07:20:06;97765.66;;;16.72;100.00
21869;BME280;11099;41.564;23.296;2023-05-09T07:22:32;97845.97;;;17.26;100.00
21869;BME280;11099;41.564;23.296;2023-05-09T07:24:58;97875.22;;;17.27;100.00
21869;BME280;11099;41.564;23.296;2023-05-09T07:27:23;97836.69;;;17.11;100.00
21869;BME280;11099;41.564;23.296;2023-05-09T07:29:49;97822.50;;;16.86;100.00
21869;BME280;11099;41.564;23.296;2023-05-09T07:32:17;97812.69;;;16.41;100.00
21869;BME280;11099;41.564;23.296;2023-05-09T07:34:43;97694.63;;;15.38;100.00
21869;BME280;11099;41.564;23.296;2023-05-09T07:37:08;97843.91;;;16.46;100.00
21869;BME280;11099;41.564;23.296;2023-05-09T07:39:34;97867.78;;;16.59;100.00
21869;BME280;11099;41.564;23.296;2023-05-09T07:41:59;97796.09;;;16.15;100.00
21869;BME280;11099;41.564;23.296;2023-05-09T07:44:25;97848.50;;;16.33;100.00
21869;BME280;11099;41.564;23.296;2023-05-09T07:46:50;97745.06;;;16.15;100.00
21869;BME280;11099;41.564;23.296;2023-05-09T07:49:16;97825.19;;;16.86;100.00
21869;BME280;11099;41.564;23.296;2023-05-09T07:51:41;97838.16;;;17.08;100.00
21869;BME280;11099;41.564;23.296;2023-05-09T07:54:07;97766.97;;;16.53;100.00
21869;BME280;11099;41.564;23.296;2023-05-09T07:56:34;97754.44;;;16.57;100.00
21869;BME280;11099;41.564;23.296;2023-05-09T07:58:59;97774.59;;;16.51;100.00
21869;BME280;11099;41.564;23.296;2023-05-09T08:01:26;97776.97;;;16.28;100.00
21869;BME280;11099;41.564;23.296;2023-05-09T08:03:51;97830.56;;;16.86;100.00
21869;BME280;11099;41.564;23.296;2023-05-09T08:06:17;97882.31;;;17.20;100.00
21869;BME280;11099;41.564;23.296;2023-05-09T08:08:42;97779.88;;;16.23;100.00
21869;BME280;11099;41.564;23.296;2023-05-09T08:11:07;97813.53;;;16.70;100.00
21869;BME280;11099;41.564;23.296;2023-05-09T08:13:33;97857.25;;;17.03;100.00
21869;BME280;11099;41.564;23.296;2023-05-09T08:16:00;97836.31;;;16.84;100.00
21869;BME280;11099;41.564;23.296;2023-05-09T08:18:26;97789.38;;;16.57;100.00
21869;BME280;11099;41.564;23.296;2023-05-09T08:20:51;97817.94;;;16.50;100.00
21869;BME280;11099;41.564;23.296;2023-05-09T08:23:17;97894.56;;;16.93;100.00
21869;BME280;11099;41.564;23.296;2023-05-09T08:25:42;97862.19;;;16.77;100.00
21869;BME280;11099;41.564;23.296;2023-05-09T08:28:07;97820.06;;;16.20;100.00
21869;BME280;11099;41.564;23.296;2023-05-09T08:30:33;97890.50;;;16.86;100.00
21869;BME280;11099;41.564;23.296;2023-05-09T08:32:59;97896.66;;;17.11;100.00
21869;BME280;11099;41.564;23.296;2023-05-09T08:35:24;97833.84;;;16.55;100.00
21869;BME280;11099;41.564;23.296;2023-05-09T08:37:50;97870.25;;;16.89;100.00
21869;BME280;11099;41.564;23.296;2023-05-09T08:40:15;97841.44;;;16.53;100.00
21869;BME280;11099;41.564;23.296;2023-05-09T08:42:42;97773.38;;;16.12;100.00
21869;BME280;11099;41.564;23.296;2023-05-09T08:45:10;97878.22;;;16.73;100.00
21869;BME280;11099;41.564;23.296;2023-05-09T08:47:39;97897.47;;;16.88;100.00
21869;BME280;11099;41.564;23.296;2023-05-09T08:50:06;97895.66;;;16.67;100.00
21869;BME280;11099;41.564;23.296;2023-05-09T08:52:33;97895.69;;;16.79;100.00
21869;BME280;11099;41.564;23.296;2023-05-09T08:55:02;97816.94;;;16.30;100.00
21869;BME280;11099;41.564;23.296;2023-05-09T08:57:32;97817.59;;;16.51;100.00
21869;BME280;11099;41.564;23.296;2023-05-09T09:00:02;97860.25;;;16.53;100.00
21869;BME280;11099;41.564;23.296;2023-05-09T09:02:31;97900.00;;;16.47;100.00
21869;BME280;11099;41.564;23.296;2023-05-09T09:04:56;97832.25;;;16.05;100.00
21869;BME280;11099;41.564;23.296;2023-05-09T09:07:22;97827.44;;;16.11;100.00
21869;BME280;11099;41.564;23.296;2023-05-09T09:09:51;97880.97;;;16.40;100.00
21869;BME280;11099;41.564;23.296;2023-05-09T09:12:17;97765.88;;;15.48;100.00
21869;BME280;11099;41.564;23.296;2023-05-09T09:14:52;97907.22;;;16.10;100.00
21869;BME280;11099;41.564;23.296;2023-05-09T09:17:20;97912.91;;;16.08;100.00
21869;BME280;11099;41.564;23.296;2023-05-09T09:19:48;97912.47;;;16.06;100.00
21869;BME280;11099;41.564;23.296;2023-05-09T09:22:15;97847.81;;;15.66;100.00
21869;BME280;11099;41.564;23.296;2023-05-09T09:24:42;97846.94;;;15.53;100.00
21869;BME280;11099;41.564;23.296;2023-05-09T09:27:08;97865.50;;;15.59;100.00
21869;BME280;11099;41.564;23.296;2023-05-09T09:29:33;97917.50;;;15.75;100.00
21869;BME280;11099;41.564;23.296;2023-05-09T09:32:03;97920.66;;;16.10;100.00
21869;BME280;11099;41.564;23.296;2023-05-09T09:34:29;97891.84;;;15.98;100.00
21869;BME280;11099;41.564;23.296;2023-05-09T09:36:55;97810.69;;;15.47;100.00
21869;BME280;11099;41.564;23.296;2023-05-09T09:39:20;97865.72;;;15.53;100.00
21869;BME280;11099;41.564;23.296;2023-05-09T09:41:46;97763.88;;;14.91;100.00
21869;BME280;11099;41.564;23.296;2023-05-09T09:44:17;97924.72;;;16.28;100.00
21869;BME280;11099;41.564;23.296;2023-05-09T09:46:45;97886.31;;;16.16;100.00
21869;BME280;11099;41.564;23.296;2023-05-09T09:49:15;97918.56;;;16.28;100.00
21869;BME280;11099;41.564;23.296;2023-05-09T09:51:41;97915.53;;;16.29;100.00
21869;BME280;11099;41.564;23.296;2023-05-09T09:54:08;97909.47;;;16.20;100.00
21869;BME280;11099;41.564;23.296;2023-05-09T09:56:48;97806.41;;;15.34;100.00
21869;BME280;11099;41.564;23.296;2023-05-09T09:59:18;97918.78;;;16.23;100.00
21869;BME280;11099;41.564;23.296;2023-05-09T10:02:01;97867.47;;;16.03;100.00
21869;BME280;11099;41.564;23.296;2023-05-09T10:04:33;97921.25;;;16.28;100.00
21869;BME280;11099;41.564;23.296;2023-05-09T10:07:06;97799.19;;;15.47;100.00
21869;BME280;11099;41.564;23.296;2023-05-09T10:09:34;97921.69;;;16.18;100.00
21869;BME280;11099;41.564;23.296;2023-05-09T10:12:04;97868.00;;;15.85;100.00
21869;BME280;11099;41.564;23.296;2023-05-09T10:14:32;97919.78;;;16.18;100.00
21869;BME280;11099;41.564;23.296;2023-05-09T10:17:00;97936.78;;;16.10;100.00
21869;BME280;11099;41.564;23.296;2023-05-09T10:19:26;97853.78;;;15.84;100.00
21869;BME280;11099;41.564;23.296;2023-05-09T10:21:56;97892.75;;;16.02;100.00
21869;BME280;11099;41.564;23.296;2023-05-09T10:24:33;97921.84;;;16.00;100.00
21869;BME280;11099;41.564;23.296;2023-05-09T10:27:05;97862.25;;;15.74;100.00
21869;BME280;11099;41.564;23.296;2023-05-09T10:29:36;97882.03;;;15.69;100.00
21869;BME280;11099;41.564;23.296;2023-05-09T10:32:17;97886.84;;;15.76;100.00
21869;BME280;11099;41.564;23.296;2023-05-09T10:34:48;97835.91;;;15.34;100.00
21869;BME280;11099;41.564;23.296;2023-05-09T10:37:14;97862.00;;;15.67;100.00
21869;BME280;11099;41.564;23.296;2023-05-09T10:39:40;97844.16;;;15.50;100.00
21869;BME280;11099;41.564;23.296;2023-05-09T10:42:07;97918.63;;;16.07;100.00
21869;BME280;11099;41.564;23.296;2023-05-09T10:44:33;97854.00;;;15.58;100.00
21869;BME280;11099;41.564;23.296;2023-05-09T10:47:00;97906.34;;;15.85;100.00
21869;BME280;11099;41.564;23.296;2023-05-09T10:49:26;97912.72;;;16.14;100.00
21869;BME280;11099;41.564;23.296;2023-05-09T10:51:52;97913.00;;;16.33;100.00
21869;BME280;11099;41.564;23.296;2023-05-09T10:54:28;97923.84;;;16.37;100.00
21869;BME280;11099;41.564;23.296;2023-05-09T10:56:56;97855.72;;;15.96;100.00
21869;BME280;11099;41.564;23.296;2023-05-09T10:59:41;97921.69;;;16.30;100.00
21869;BME280;11099;41.564;23.296;2023-05-09T11:02:12;97915.88;;;16.28;100.00
21869;BME280;11099;41.564;23.296;2023-05-09T11:04:38;97918.78;;;16.23;100.00
21869;BME280;11099;41.564;23.296;2023-05-09T11:12:31;97897.16;;;16.07;100.00
21869;BME280;11099;41.564;23.296;2023-05-09T11:15:04;97899.50;;;16.08;100.00
21869;BME280;11099;41.564;23.296;2023-05-09T11:17:30;97917.88;;;16.19;100.00
21869;BME280;11099;41.564;23.296;2023-05-09T11:19:58;97914.22;;;16.36;100.00
21869;BME280;11099;41.564;23.296;2023-05-09T11:22:28;97845.19;;;15.91;100.00
21869;BME280;11099;41.564;23.296;2023-05-09T11:25:02;97902.91;;;16.30;100.00
21869;BME280;11099;41.564;23.296;2023-05-09T11:27:38;97853.34;;;15.61;100.00
21869;BME280;11099;41.564;23.296;2023-05-09T11:30:09;97933.03;;;16.02;100.00
21869;BME280;11099;41.564;23.296;2023-05-09T11:32:51;97919.19;;;16.13;100.00
21869;BME280;11099;41.564;23.296;2023-05-09T11:35:23;97920.94;;;15.96;100.00
21869;BME280;11099;41.564;23.296;2023-05-09T11:38:02;97830.16;;;15.44;100.00
21869;BME280;11099;41.564;23.296;2023-05-09T11:40:28;97912.47;;;15.73;100.00
21869;BME280;11099;41.564;23.296;2023-05-09T11:42:55;97900.81;;;15.69;100.00
21869;BME280;11099;41.564;23.296;2023-05-09T11:45:23;97884.66;;;15.78;100.00
21869;BME280;11099;41.564;23.296;2023-05-09T11:47:50;97879.25;;;15.66;100.00
21869;BME280;11099;41.564;23.296;2023-05-09T11:50:17;97925.53;;;15.96;100.00
21869;BME280;11099;41.564;23.296;2023-05-09T11:52:44;97919.97;;;16.13;100.00
21869;BME280;11099;41.564;23.296;2023-05-09T11:55:12;97796.56;;;15.38;100.00
21869;BME280;11099;41.564;23.296;2023-05-09T11:57:46;97897.44;;;15.93;100.00
21869;BME280;11099;41.564;23.296;2023-05-09T12:00:19;97850.97;;;15.80;100.00
21869;BME280;11099;41.564;23.296;2023-05-09T12:02:45;97889.84;;;15.95;100.00
21869;BME280;11099;41.564;23.296;2023-05-09T12:05:16;97826.78;;;15.68;100.00
21869;BME280;11099;41.564;23.296;2023-05-09T12:07:44;97839.22;;;15.73;100.00
21869;BME280;11099;41.564;23.296;2023-05-09T12:10:17;97928.06;;;16.25;100.00
21869;BME280;11099;41.564;23.296;2023-05-09T12:12:46;97931.09;;;16.24;100.00
21869;BME280;11099;41.564;23.296;2023-05-09T12:15:12;97928.72;;;16.10;100.00
21869;BME280;11099;41.564;23.296;2023-05-09T12:17:52;97817.25;;;15.38;100.00
21869;BME280;11099;41.564;23.296;2023-05-09T12:20:26;97886.66;;;15.81;100.00
21869;BME280;11099;41.564;23.296;2023-05-09T12:22:54;97852.16;;;15.71;100.00
21869;BME280;11099;41.564;23.296;2023-05-09T12:25:23;97895.56;;;15.94;100.00
21869;BME280;11099;41.564;23.296;2023-05-09T12:27:51;97884.25;;;16.00;100.00
21869;BME280;11099;41.564;23.296;2023-05-09T12:30:20;97866.13;;;15.97;100.00
21869;BME280;11099;41.564;23.296;2023-05-09T12:32:51;97889.69;;;16.25;100.00
21869;BME280;11099;41.564;23.296;2023-05-09T12:35:20;97917.47;;;16.41;100.00
21869;BME280;11099;41.564;23.296;2023-05-09T12:37:57;97911.41;;;16.32;100.00
21869;BME280;11099;41.564;23.296;2023-05-09T12:40:23;97855.41;;;16.10;100.00
21869;BME280;11099;41.564;23.296;2023-05-09T12:42:49;97906.16;;;16.36;100.00
21869;BME280;11099;41.564;23.296;2023-05-09T12:45:18;97831.06;;;15.81;100.00
21869;BME280;11099;41.564;23.296;2023-05-09T12:47:44;97782.38;;;15.38;100.00
21869;BME280;11099;41.564;23.296;2023-05-09T12:50:10;97893.91;;;15.80;100.00
21869;BME280;11099;41.564;23.296;2023-05-09T12:52:41;97894.66;;;15.69;100.00
21869;BME280;11099;41.564;23.296;2023-05-09T12:55:11;97811.47;;;15.69;100.00
21869;BME280;11099;41.564;23.296;2023-05-09T12:57:39;97859.72;;;15.90;100.00
21869;BME280;11099;41.564;23.296;2023-05-09T13:00:06;97880.00;;;15.99;100.00